Time;durP1;ratioP1;P1;durP2;ratioP2;P2;SDS_P1;SDS_P2;PMS_P1;PMS_P2;Temp;Humidity;BMP_temperature;BMP_pressure;BME280_temperature;BME280_humidity;BME280_pressure;Samples;Min_cycle;Max_cycle;Signal;HPM_P1;HPM_P2
2021/04/17 00:01:44;;;;;;;7.15;3.33;;;;;;;9.61;67.62;100354.02;1795090;79;21167;-55
2021/04/17 00:04:12;;;;;;;7.90;3.10;;;;;;;9.61;67.56;100360.10;1797698;79;21160;-54
2021/04/17 00:06:41;;;;;;;5.55;3.08;;;;;;;9.58;67.62;100356.88;1800616;79;21156;-55
2021/04/17 00:09:11;;;;;;;5.30;2.65;;;;;;;9.56;67.71;100357.48;1794752;79;21683;-54
2021/04/17 00:11:41;;;;;;;5.28;3.10;;;;;;;9.53;67.68;100355.08;1801558;79;21524;-55
2021/04/17 00:14:14;;;;;;;5.80;2.75;;;;;;;9.49;67.72;100359.73;1784278;79;21610;-55
2021/04/17 00:16:43;;;;;;;6.55;3.27;;;;;;;9.45;67.70;100356.99;1771514;79;21204;-55
2021/04/17 00:19:10;;;;;;;5.90;3.12;;;;;;;9.38;67.75;100360.56;1794470;79;21211;-54
2021/04/17 00:21:38;;;;;;;5.12;2.47;;;;;;;9.33;67.88;100364.01;1802931;77;22071;-55
2021/04/17 00:24:07;;;;;;;5.90;3.10;;;;;;;9.33;67.83;100364.01;1794183;79;21168;-55
2021/04/17 00:26:35;;;;;;;6.42;2.87;;;;;;;9.37;67.68;100365.44;1796721;79;21100;-55
2021/04/17 00:29:03;;;;;;;6.35;3.22;;;;;;;9.41;67.75;100363.41;1769597;79;21193;-55
2021/04/17 00:31:31;;;;;;;6.08;3.27;;;;;;;9.44;67.75;100364.50;1797681;77;21140;-55
2021/04/17 00:33:59;;;;;;;6.85;3.60;;;;;;;9.47;67.78;100370.35;1769238;79;21219;-54
2021/04/17 00:36:27;;;;;;;6.03;3.27;;;;;;;9.44;67.60;100362.70;1795224;79;21179;-54
2021/04/17 00:38:57;;;;;;;6.42;3.12;;;;;;;9.43;67.72;100368.92;1762045;80;21152;-54
2021/04/17 00:41:25;;;;;;;7.20;3.65;;;;;;;9.44;67.77;100367.95;1799223;79;21106;-54
2021/04/17 00:43:53;;;;;;;7.20;3.65;;;;;;;9.42;67.74;100367.24;1796655;79;21183;-54
2021/04/17 00:46:21;;;;;;;7.92;3.83;;;;;;;9.39;67.82;100371.41;1799264;79;23425;-55
2021/04/17 00:48:48;;;;;;;6.60;3.55;;;;;;;9.36;67.95;100372.11;1796307;78;21159;-54
2021/04/17 00:51:16;;;;;;;8.05;3.62;;;;;;;9.38;67.99;100372.37;1802095;79;21764;-54
2021/04/17 00:53:45;;;;;;;6.17;3.05;;;;;;;9.49;67.71;100378.12;1799872;79;21160;-54
2021/04/17 00:56:12;;;;;;;6.17;3.67;;;;;;;9.54;67.59;100376.47;1797055;79;21799;-54
2021/04/17 00:58:40;;;;;;;6.20;3.25;;;;;;;9.54;67.64;100377.30;1792255;79;21263;-55
2021/04/17 01:01:08;;;;;;;6.00;3.12;;;;;;;9.55;67.60;100383.37;1772845;79;21179;-54
2021/04/17 01:04:04;;;;;;;6.08;3.52;;;;;;;9.54;67.40;100386.98;1769374;79;21167;-55
2021/04/17 01:06:54;;;;;;;7.10;3.85;;;;;;;9.52;67.36;100387.09;1799071;79;21347;-54
2021/04/17 01:09:35;;;;;;;6.75;4.12;;;;;;;9.50;67.26;100383.75;1758341;79;21195;-55
2021/04/17 01:12:13;;;;;;;8.33;4.25;;;;;;;9.47;67.24;100383.48;1788860;79;21203;-54
2021/04/17 01:14:50;;;;;;;6.15;3.25;;;;;;;9.40;67.27;100382.28;1797115;79;23247;-56
2021/04/17 01:17:18;;;;;;;6.85;3.90;;;;;;;9.30;67.42;100386.06;1751211;80;21234;-56
2021/04/17 01:19:52;;;;;;;6.53;3.17;;;;;;;9.22;67.63;100381.86;1744274;79;21207;-56
2021/04/17 01:22:23;;;;;;;7.05;4.03;;;;;;;9.20;67.74;100380.31;1692593;81;21152;-56
2021/04/17 01:25:11;;;;;;;6.92;3.22;;;;;;;9.30;67.73;100381.30;1722380;81;21226;-56
2021/04/17 01:27:39;;;;;;;6.67;3.05;;;;;;;9.36;67.60;100378.20;1743592;81;21158;-56
2021/04/17 01:30:13;;;;;;;6.55;3.60;;;;;;;9.40;67.63;100380.97;1708015;82;21130;-55
2021/04/17 01:32:40;;;;;;;6.17;3.30;;;;;;;9.42;67.64;100380.38;1713517;83;21657;-55
2021/04/17 01:35:12;;;;;;;5.92;3.35;;;;;;;9.45;67.52;100386.72;1717827;81;21189;-55
2021/04/17 01:37:56;;;;;;;5.92;3.22;;;;;;;9.45;67.37;100389.34;1731417;80;21551;-55
2021/04/17 01:40:26;;;;;;;7.17;3.85;;;;;;;9.39;67.40;100392.41;1714247;83;21150;-55
2021/04/17 01:42:54;;;;;;;9.65;3.50;;;;;;;9.32;67.55;100393.83;1717699;83;21188;-55
2021/04/17 01:45:24;;;;;;;6.78;3.60;;;;;;;9.26;67.70;100392.52;1716192;83;21398;-56
2021/04/17 01:47:57;;;;;;;6.50;3.45;;;;;;;9.20;67.93;100396.07;1727316;82;21180;-55
2021/04/17 01:50:26;;;;;;;6.22;3.60;;;;;;;9.23;67.96;100400.61;1706268;82;21176;-55
2021/04/17 01:52:54;;;;;;;5.87;3.42;;;;;;;9.33;67.77;100390.72;1693630;82;21129;-55
2021/04/17 01:55:22;;;;;;;6.55;4.10;;;;;;;9.41;67.74;100398.87;1724294;82;21141;-55
2021/04/17 01:57:52;;;;;;;7.87;4.37;;;;;;;9.45;67.71;100394.59;1727649;82;21215;-55
2021/04/17 02:00:20;;;;;;;7.08;3.70;;;;;;;9.49;67.68;100397.33;1724786;82;21113;-55
2021/04/17 02:02:48;;;;;;;7.92;3.75;;;;;;;9.52;67.52;100398.08;1726824;82;21168;-55
2021/04/17 02:05:17;;;;;;;8.13;3.67;;;;;;;9.54;67.46;100404.05;1711085;82;21184;-55
2021/04/17 02:07:45;;;;;;;6.92;3.75;;;;;;;9.53;67.26;100404.98;1723514;82;21152;-55
2021/04/17 02:10:13;;;;;;;8.55;3.70;;;;;;;9.49;67.22;100406.53;1727162;82;21257;-55
2021/04/17 02:12:41;;;;;;;8.68;4.12;;;;;;;9.44;67.36;100404.72;1730354;80;21184;-56
2021/04/17 02:15:10;;;;;;;7.62;3.85;;;;;;;9.39;67.45;100408.66;1735875;80;21116;-55
2021/04/17 02:18:01;;;;;;;6.10;3.33;;;;;;;9.37;67.35;100407.45;1762661;80;21164;-55
2021/04/17 02:20:35;;;;;;;7.05;3.83;;;;;;;9.41;67.23;100402.81;1745106;80;21105;-54
2021/04/17 02:23:03;;;;;;;6.97;3.45;;;;;;;9.44;67.19;100407.35;1757613;79;21219;-55
2021/04/17 02:25:30;;;;;;;6.45;3.47;;;;;;;9.47;67.31;100412.87;1755900;79;21110;-55
2021/04/17 02:27:57;;;;;;;6.53;3.52;;;;;;;9.45;67.21;100415.60;1752810;80;21118;-55
2021/04/17 02:30:24;;;;;;;6.25;3.42;;;;;;;9.40;67.21;100415.11;1731000;80;21443;-55
2021/04/17 02:32:56;;;;;;;6.17;3.60;;;;;;;9.36;67.33;100416.27;1741727;80;21140;-54
2021/04/17 02:35:24;;;;;;;6.30;3.30;;;;;;;9.34;67.50;100419.50;1736262;81;21187;-55
2021/04/17 02:37:51;;;;;;;7.03;3.75;;;;;;;9.32;67.50;100421.89;1696725;84;21174;-54
2021/04/17 02:40:18;;;;;;;6.47;3.35;;;;;;;9.29;67.48;100425.08;1762285;80;21138;-54
2021/04/17 02:42:46;;;;;;;7.83;4.12;;;;;;;9.26;67.55;100431.04;1735781;80;21176;-54
2021/04/17 02:45:14;;;;;;;7.25;4.10;;;;;;;9.28;67.52;100437.04;1760588;80;21113;-55
2021/04/17 02:47:41;;;;;;;5.85;3.10;;;;;;;9.34;67.38;100431.31;1737991;80;21216;-55
2021/04/17 02:50:10;;;;;;;6.37;3.40;;;;;;;9.36;67.40;100429.41;1767860;80;21604;-55
2021/04/17 02:52:38;;;;;;;7.28;3.95;;;;;;;9.40;67.41;100438.75;1756763;80;21116;-55
2021/04/17 02:55:08;;;;;;;5.70;3.58;;;;;;;9.38;67.50;100439.34;1744831;79;21117;-55
2021/04/17 02:57:35;;;;;;;6.55;3.50;;;;;;;9.34;67.53;100449.70;1718929;82;21176;-55
2021/04/17 03:00:06;;;;;;;6.65;3.90;;;;;;;9.30;67.71;100447.77;1760550;80;21204;-55
2021/04/17 03:02:34;;;;;;;5.45;3.25;;;;;;;9.28;67.86;100448.86;1760143;80;21129;-55
2021/04/17 03:05:01;;;;;;;6.58;3.70;;;;;;;9.26;67.95;100450.28;1764025;79;21223;-55
2021/04/17 03:07:29;;;;;;;6.20;3.30;;;;;;;9.26;67.89;100448.11;1699429;82;21221;-55
2021/04/17 03:09:56;;;;;;;6.62;3.58;;;;;;;9.22;67.92;100454.06;1766387;80;21211;-54
2021/04/17 03:12:23;;;;;;;7.55;4.05;;;;;;;9.22;67.89;100456.69;1756097;80;21206;-55
2021/04/17 03:14:51;;;;;;;6.60;3.60;;;;;;;9.29;67.95;100454.45;1723701;81;21292;-55
2021/04/17 03:17:18;;;;;;;7.58;3.92;;;;;;;9.33;67.72;100459.86;1729896;81;21112;-55
2021/04/17 03:19:46;;;;;;;6.92;3.58;;;;;;;9.34;67.75;100463.31;1702488;83;21759;-55
2021/04/17 03:22:13;;;;;;;6.50;3.60;;;;;;;9.32;67.89;100459.48;1733735;81;21195;-55
2021/04/17 03:24:41;;;;;;;6.83;4.05;;;;;;;9.34;67.89;100464.63;1736914;81;21192;-55
2021/04/17 03:27:09;;;;;;;7.60;3.42;;;;;;;9.34;67.74;100464.14;1734842;81;21184;-57
2021/04/17 03:29:37;;;;;;;7.78;3.98;;;;;;;9.34;67.78;100472.50;1731600;81;21171;-56
2021/04/17 03:32:06;;;;;;;7.87;3.92;;;;;;;9.33;67.72;100470.36;1736695;81;21175;-57
2021/04/17 03:34:33;;;;;;;6.42;3.17;;;;;;;9.32;67.81;100473.09;1735923;81;21139;-56
2021/04/17 03:37:01;;;;;;;7.22;3.40;;;;;;;9.30;67.79;100474.52;1738757;81;21273;-56
2021/04/17 03:39:29;;;;;;;6.92;3.70;;;;;;;9.32;67.77;100473.92;1713702;81;21249;-57
2021/04/17 03:41:56;;;;;;;5.80;2.98;;;;;;;9.41;67.53;100478.97;1687007;82;21464;-55
2021/04/17 03:44:24;;;;;;;7.55;3.42;;;;;;;9.45;67.53;100485.69;1734568;81;21176;-56
2021/04/17 03:46:51;;;;;;;7.87;3.98;;;;;;;9.48;67.61;100486.75;1711956;81;21184;-57
2021/04/17 03:49:18;;;;;;;6.85;3.62;;;;;;;9.49;67.51;100486.64;1735740;80;21262;-56
2021/04/17 03:51:47;;;;;;;6.47;3.35;;;;;;;9.47;67.49;100490.34;1737468;81;21136;-55
2021/04/17 03:54:15;;;;;;;7.42;3.72;;;;;;;9.45;67.49;100489.62;1732003;81;21212;-56
2021/04/17 03:56:42;;;;;;;7.65;3.95;;;;;;;9.45;67.52;100492.25;1735987;81;21211;-56
2021/04/17 03:59:09;;;;;;;7.87;3.47;;;;;;;9.43;67.44;100496.30;1734787;81;21120;-56
2021/04/17 04:01:37;;;;;;;8.95;4.25;;;;;;;9.42;67.45;100505.13;1730090;81;21216;-56
2021/04/17 04:04:05;;;;;;;6.95;4.00;;;;;;;9.40;67.47;100504.41;1740954;81;21196;-55
2021/04/17 04:06:35;;;;;;;7.87;3.65;;;;;;;9.34;67.56;100510.09;1734403;81;21128;-55
2021/04/17 04:09:05;;;;;;;6.03;3.17;;;;;;;9.36;67.70;100509.98;1745781;81;21172;-55
2021/04/17 04:11:33;;;;;;;7.60;3.65;;;;;;;9.42;67.58;100510.38;1721862;81;21627;-55
2021/04/17 04:14:00;;;;;;;7.03;4.12;;;;;;;9.48;67.63;100516.50;1723246;81;21184;-55
2021/04/17 04:16:27;;;;;;;6.22;3.90;;;;;;;9.52;67.63;100516.28;1730312;81;21363;-55
2021/04/17 04:18:56;;;;;;;7.78;4.15;;;;;;;9.55;67.90;100522.60;1750502;81;21188;-55
2021/04/17 04:21:24;;;;;;;9.20;4.42;;;;;;;9.59;67.75;100524.89;1748913;81;21689;-55
2021/04/17 04:23:51;;;;;;;7.50;4.10;;;;;;;9.61;67.60;100524.78;1735373;81;22262;-55
2021/04/17 04:26:18;;;;;;;6.28;3.77;;;;;;;9.62;67.57;100527.79;1731606;81;22776;-56
2021/04/17 04:28:46;;;;;;;7.17;3.72;;;;;;;9.63;67.58;100533.38;1741178;81;21200;-56
2021/04/17 04:31:13;;;;;;;7.00;4.25;;;;;;;9.62;67.62;100533.88;1711811;81;21203;-55
2021/04/17 04:33:41;;;;;;;8.65;4.28;;;;;;;9.63;67.70;100536.88;1734789;81;21686;-55
2021/04/17 04:36:09;;;;;;;8.20;4.17;;;;;;;9.69;67.63;100530.80;1736425;81;21172;-55
2021/04/17 04:38:37;;;;;;;7.05;4.00;;;;;;;9.78;67.49;100534.05;1737297;81;21202;-55
2021/04/17 04:41:05;;;;;;;7.00;3.72;;;;;;;9.84;67.18;100534.43;1739111;81;21208;-55
2021/04/17 04:43:33;;;;;;;7.45;4.33;;;;;;;9.88;67.00;100537.66;1745382;81;21211;-55
2021/04/17 04:46:00;;;;;;;6.75;3.72;;;;;;;9.87;67.08;100542.58;1742412;81;21235;-55
2021/04/17 04:48:27;;;;;;;8.48;4.53;;;;;;;9.92;67.03;100540.89;1751926;81;21173;-55
2021/04/17 04:50:56;;;;;;;6.10;3.47;;;;;;;9.97;66.90;100538.75;1733588;81;21275;-55
2021/04/17 04:53:23;;;;;;;7.15;3.95;;;;;;;10.02;66.66;100544.05;1726696;81;21287;-57
2021/04/17 05:09:06;;;;;;;7.58;3.98;;;;;;;11.19;64.10;100553.93;1815299;77;22335;-55
2021/04/17 05:11:36;;;;;;;7.42;4.03;;;;;;;11.31;63.22;100559.55;1770132;79;21186;-56
2021/04/17 05:14:05;;;;;;;6.58;4.22;;;;;;;11.17;63.19;100561.12;1812028;76;21016;-55
2021/04/17 05:16:33;;;;;;;7.42;3.90;;;;;;;11.00;63.49;100564.27;1798387;78;21144;-55
2021/04/17 05:19:01;;;;;;;6.12;3.70;;;;;;;10.83;63.78;100566.42;1795874;79;21149;-55
2021/04/17 05:21:28;;;;;;;6.30;3.12;;;;;;;10.71;64.02;100573.97;1796965;78;21132;-55
2021/04/17 05:24:07;;;;;;;7.40;3.65;;;;;;;10.53;63.87;100573.10;1856474;76;22008;-53
2021/04/17 05:26:34;;;;;;;5.62;2.90;;;;;;;10.33;64.46;100568.53;1804743;77;21634;-53
2021/04/17 05:29:03;;;;;;;7.65;3.47;;;;;;;10.22;64.71;100576.73;1798632;77;21454;-55
2021/04/17 05:31:31;;;;;;;5.70;2.90;;;;;;;10.10;65.12;100580.27;1833293;77;20997;-55
2021/04/17 05:33:58;;;;;;;6.65;3.08;;;;;;;10.00;65.26;100576.20;1826565;77;21112;-55
2021/04/17 05:36:25;;;;;;;7.30;3.40;;;;;;;9.95;65.62;100575.70;1824303;77;21126;-55
2021/04/17 05:38:53;;;;;;;6.90;3.37;;;;;;;9.93;65.82;100581.52;1831616;77;21107;-55
2021/04/17 05:41:25;;;;;;;6.37;3.60;;;;;;;9.96;65.92;100583.93;1823916;76;22104;-55
2021/04/17 05:43:53;;;;;;;6.12;3.20;;;;;;;9.94;66.14;100587.16;1826489;77;21120;-54
2021/04/17 05:46:21;;;;;;;5.42;2.98;;;;;;;9.89;65.89;100588.46;1823872;77;21712;-54
2021/04/17 05:48:49;;;;;;;6.42;3.70;;;;;;;9.77;66.05;100593.66;1819224;77;21724;-55
2021/04/17 05:51:16;;;;;;;4.90;2.45;;;;;;;9.65;66.27;100599.34;1837847;77;21180;-55
2021/04/17 05:53:44;;;;;;;6.17;2.92;;;;;;;9.52;66.42;100601.66;1827714;77;21347;-55
2021/04/17 05:56:12;;;;;;;6.90;3.35;;;;;;;9.38;66.72;100601.31;1825143;77;21213;-58
2021/04/17 05:58:39;;;;;;;7.60;2.67;;;;;;;9.29;67.34;100606.27;1825979;76;21211;-56
2021/04/17 06:01:06;;;;;;;4.78;2.47;;;;;;;9.30;67.34;100612.38;1824056;76;21472;-55
2021/04/17 06:03:34;;;;;;;6.20;3.00;;;;;;;9.36;67.06;100613.23;1822964;77;21439;-55
2021/04/17 06:06:01;;;;;;;5.20;2.20;;;;;;;9.39;67.13;100611.71;1828694;77;21198;-59
2021/04/17 06:08:29;;;;;;;8.23;3.20;;;;;;;9.39;67.18;100611.71;1828298;77;21187;-56
2021/04/17 06:10:57;;;;;;;7.35;3.02;;;;;;;9.40;67.47;100615.20;1834328;77;21175;-59
2021/04/17 06:13:25;;;;;;;5.42;2.58;;;;;;;9.37;67.49;100622.80;1845280;77;21513;-60
2021/04/17 06:15:53;;;;;;;5.47;2.70;;;;;;;9.32;67.46;100620.16;1795846;77;21180;-60
2021/04/17 06:18:20;;;;;;;5.65;2.90;;;;;;;9.25;67.66;100626.31;1800119;78;21271;-60
2021/04/17 06:20:50;;;;;;;5.60;2.95;;;;;;;9.20;68.11;100627.94;1826894;77;21210;-59
2021/04/17 06:23:17;;;;;;;4.65;2.02;;;;;;;9.17;68.21;100624.21;1832802;77;21136;-60
2021/04/17 06:25:44;;;;;;;6.12;2.85;;;;;;;9.23;68.06;100624.24;1828470;76;21163;-60
2021/04/17 06:28:12;;;;;;;5.17;2.58;;;;;;;9.30;67.60;100622.88;1822766;77;21170;-59
2021/04/17 06:30:40;;;;;;;7.42;2.67;;;;;;;9.34;67.62;100626.13;1795358;77;22454;-59
2021/04/17 06:33:09;;;;;;;4.45;2.10;;;;;;;9.32;67.46;100632.80;1828069;76;21215;-59
2021/04/17 06:35:38;;;;;;;6.47;2.62;;;;;;;9.30;67.77;100624.20;1828518;76;21179;-59
2021/04/17 06:38:08;;;;;;;6.30;2.52;;;;;;;9.27;67.60;100624.41;1830603;77;21164;-59
2021/04/17 06:40:36;;;;;;;5.62;2.67;;;;;;;9.24;68.04;100632.02;1825591;77;21602;-59
2021/04/17 06:43:04;;;;;;;6.25;3.22;;;;;;;9.25;67.85;100636.81;1830857;77;21232;-59
2021/04/17 06:45:38;;;;;;;6.10;3.00;;;;;;;9.20;68.08;100633.67;1809009;77;21128;-59
2021/04/17 06:48:09;;;;;;;6.25;2.62;;;;;;;9.27;68.33;100644.10;1831533;77;21175;-59
2021/04/17 06:50:38;;;;;;;5.25;2.02;;;;;;;9.40;68.08;100640.98;1831163;77;21183;-57
2021/04/17 06:53:08;;;;;;;4.22;2.17;;;;;;;9.54;67.90;100641.78;1836376;76;21211;-57
2021/04/17 06:55:37;;;;;;;6.37;2.67;;;;;;;9.60;67.23;100639.55;1767611;80;21831;-57
2021/04/17 06:58:04;;;;;;;4.90;2.22;;;;;;;9.63;67.35;100637.16;1758646;79;21230;-58
2021/04/17 07:00:32;;;;;;;10.13;3.00;;;;;;;9.69;67.29;100636.73;1764023;80;21227;-58
2021/04/17 07:02:59;;;;;;;6.53;2.98;;;;;;;9.78;67.32;100639.99;1765094;79;21376;-55
2021/04/17 07:05:28;;;;;;;5.92;3.00;;;;;;;9.83;67.19;100640.53;1732612;79;21245;-54
2021/04/17 07:07:55;;;;;;;5.72;2.80;;;;;;;9.89;67.28;100643.17;1737935;80;21207;-55
2021/04/17 07:10:23;;;;;;;5.22;2.30;;;;;;;9.96;66.74;100641.77;1736533;80;21218;-55
2021/04/17 07:12:52;;;;;;;6.53;2.95;;;;;;;9.96;65.89;100648.34;1739870;80;21204;-55
2021/04/17 07:15:19;;;;;;;5.55;2.37;;;;;;;9.96;65.73;100654.08;1717850;80;21219;-55
2021/04/17 07:17:47;;;;;;;5.30;2.95;;;;;;;9.98;65.75;100654.31;1733519;80;21218;-54
2021/04/17 07:20:16;;;;;;;5.65;2.67;;;;;;;10.00;65.77;100653.75;1759945;80;21268;-55
2021/04/17 07:22:43;;;;;;;7.33;2.67;;;;;;;10.04;65.91;100657.81;1763808;80;21658;-56
2021/04/17 07:25:15;;;;;;;5.67;2.98;;;;;;;10.06;64.97;100660.33;1760488;80;21219;-55
2021/04/17 07:27:52;;;;;;;5.37;2.58;;;;;;;10.03;65.10;100653.98;1762799;80;21230;-55
2021/04/17 07:30:32;;;;;;;5.10;2.45;;;;;;;10.03;65.31;100660.55;1758270;80;21238;-55
2021/04/17 07:33:16;;;;;;;6.55;3.30;;;;;;;10.10;64.90;100660.45;1757611;80;23490;-55
2021/04/17 07:35:46;;;;;;;6.78;2.50;;;;;;;10.14;65.20;100665.88;1761525;80;21211;-55
2021/04/17 07:38:17;;;;;;;4.42;2.33;;;;;;;10.18;64.17;100662.05;1745820;79;21194;-56
2021/04/17 07:40:47;;;;;;;5.42;2.77;;;;;;;10.23;64.49;100669.12;1749677;80;21194;-55
2021/04/17 07:43:17;;;;;;;5.97;3.05;;;;;;;10.29;64.43;100673.56;1771614;80;21451;-56
2021/04/17 07:45:44;;;;;;;6.28;2.60;;;;;;;10.40;64.54;100674.95;1737852;81;21210;-56
2021/04/17 07:48:27;;;;;;;5.83;2.50;;;;;;;10.58;64.11;100680.64;1744770;80;21242;-55
2021/04/17 07:50:59;;;;;;;5.00;2.62;;;;;;;10.69;63.68;100677.19;1766895;80;21202;-54
2021/04/17 07:53:34;;;;;;;5.10;2.60;;;;;;;10.81;63.76;100682.86;1749982;80;21203;-55
2021/04/17 07:56:30;;;;;;;5.47;2.77;;;;;;;10.88;63.54;100681.42;1770724;80;21206;-54
2021/04/17 07:59:04;;;;;;;5.58;2.62;;;;;;;10.93;62.86;100676.64;1772980;80;22171;-53
2021/04/17 08:01:34;;;;;;;5.83;2.67;;;;;;;10.93;62.81;100681.08;1774914;80;21202;-52
2021/04/17 08:04:02;;;;;;;5.65;2.52;;;;;;;10.95;62.56;100679.16;1747764;80;21210;-55
2021/04/17 08:06:30;;;;;;;5.95;2.37;;;;;;;10.91;62.33;100679.88;1775704;80;21697;-55
2021/04/17 08:08:59;;;;;;;4.97;2.45;;;;;;;10.81;62.45;100692.06;1759505;81;22315;-54
2021/04/17 08:11:29;;;;;;;9.68;3.33;;;;;;;10.70;62.66;100686.28;1751725;80;21214;-54
2021/04/17 08:13:57;;;;;;;5.08;2.20;;;;;;;10.64;63.09;100684.59;1767102;80;21635;-54
2021/04/17 08:16:25;;;;;;;6.10;2.65;;;;;;;10.59;63.31;100688.42;1760442;80;21190;-55
2021/04/17 08:18:53;;;;;;;5.45;2.83;;;;;;;10.60;63.15;100686.62;1764000;80;21199;-54
2021/04/17 08:21:21;;;;;;;8.00;2.70;;;;;;;10.68;63.30;100691.32;1768712;80;21226;-54
2021/04/17 08:23:51;;;;;;;5.20;2.50;;;;;;;10.74;62.82;100686.89;1761425;80;21207;-55
2021/04/17 08:26:19;;;;;;;5.15;2.45;;;;;;;10.74;63.04;100688.20;1736686;80;21211;-55
2021/04/17 08:28:50;;;;;;;4.65;2.15;;;;;;;10.70;63.14;100686.77;1734179;80;21194;-55
2021/04/17 08:31:24;;;;;;;5.12;2.12;;;;;;;10.62;63.30;100692.59;1733306;80;21186;-54
2021/04/17 08:34:17;;;;;;;5.00;2.33;;;;;;;10.53;63.37;100690.19;1765869;80;21195;-54
2021/04/17 08:37:05;;;;;;;4.80;2.00;;;;;;;10.42;63.72;100691.45;1741256;80;21218;-55
2021/04/17 08:39:40;;;;;;;4.62;2.00;;;;;;;10.32;63.90;100690.47;1767549;80;21227;-55
2021/04/17 08:42:16;;;;;;;4.25;1.35;;;;;;;10.26;63.65;100693.55;1767572;80;21175;-56
2021/04/17 08:44:47;;;;;;;4.50;1.77;;;;;;;10.18;63.49;100693.61;1748848;80;21610;-55
2021/04/17 08:47:36;;;;;;;5.65;1.75;;;;;;;10.15;63.73;100692.51;1761136;80;21191;-54
2021/04/17 08:50:32;;;;;;;4.95;2.08;;;;;;;10.11;63.88;100695.50;1747429;79;21371;-55
2021/04/17 08:53:04;;;;;;;4.50;1.70;;;;;;;10.18;63.75;100698.03;1769460;80;21500;-55
2021/04/17 08:55:42;;;;;;;4.65;2.00;;;;;;;10.32;63.88;100698.36;1766885;79;21203;-55
2021/04/17 08:58:24;;;;;;;4.50;2.00;;;;;;;10.41;63.78;100695.89;1781894;79;21159;-54
2021/04/17 09:00:57;;;;;;;4.83;1.82;;;;;;;10.46;63.55;100696.04;1771169;80;21171;-53
2021/04/17 09:03:45;;;;;;;4.53;1.82;;;;;;;10.43;63.34;100697.58;1766602;80;21195;-53
2021/04/17 09:06:25;;;;;;;5.12;2.20;;;;;;;10.39;63.92;100700.92;1759305;80;21183;-53
2021/04/17 09:09:24;;;;;;;5.17;2.33;;;;;;;10.40;64.11;100693.38;1764559;80;21183;-54
2021/04/17 09:12:06;;;;;;;4.92;2.10;;;;;;;10.42;64.10;100695.41;1772880;80;21246;-55
2021/04/17 09:14:48;;;;;;;4.87;2.08;;;;;;;10.42;63.93;100699.35;1765421;79;21100;-55
2021/04/17 09:17:41;;;;;;;4.80;2.17;;;;;;;10.43;63.81;100701.04;1762639;80;21209;-55
2021/04/17 09:20:13;;;;;;;4.58;1.87;;;;;;;10.44;63.67;100704.05;1761795;80;21183;-55
2021/04/17 09:22:45;;;;;;;4.83;2.02;;;;;;;10.39;63.69;100704.38;1760490;80;21206;-55
2021/04/17 09:25:37;;;;;;;4.65;2.27;;;;;;;10.46;63.77;100708.71;1735694;80;21666;-55
2021/04/17 09:28:05;;;;;;;3.62;1.75;;;;;;;10.59;63.84;100708.61;1753710;80;21148;-55
2021/04/17 09:30:32;;;;;;;6.12;2.83;;;;;;;10.69;63.79;100708.31;1764748;80;22354;-53
2021/04/17 09:33:00;;;;;;;4.28;2.10;;;;;;;10.77;63.64;100709.86;1762137;80;21135;-54
2021/04/17 09:35:35;;;;;;;6.15;3.00;;;;;;;10.83;63.41;100713.02;1766298;80;21183;-54
2021/04/17 09:38:15;;;;;;;6.13;2.40;;;;;;;10.88;63.24;100709.06;1763432;80;21615;-56
2021/04/17 09:40:51;;;;;;;4.83;2.25;;;;;;;10.93;62.65;100709.55;1768029;80;21775;-55
2021/04/17 09:43:33;;;;;;;4.97;1.95;;;;;;;10.91;62.35;100710.61;1757042;80;21148;-54
2021/04/17 09:46:16;;;;;;;5.42;2.33;;;;;;;10.88;62.37;100709.06;1734225;80;21178;-54
2021/04/17 09:48:45;;;;;;;5.03;2.10;;;;;;;10.88;62.44;100713.50;1758365;80;21176;-54
2021/04/17 09:51:23;;;;;;;5.08;2.27;;;;;;;10.88;62.60;100713.50;1735339;80;21231;-54
2021/04/17 09:53:56;;;;;;;5.97;2.70;;;;;;;10.87;62.87;100718.39;1762053;80;21175;-55
2021/04/17 09:56:27;;;;;;;6.45;3.17;;;;;;;10.84;63.01;100719.45;1766456;80;21304;-55
2021/04/17 09:58:58;;;;;;;8.28;2.42;;;;;;;10.81;63.16;100719.70;1767380;80;21167;-55
2021/04/17 10:01:25;;;;;;;5.15;2.15;;;;;;;10.84;63.46;100718.13;1752105;80;21196;-55
2021/04/17 10:03:57;;;;;;;7.47;2.85;;;;;;;10.94;63.31;100725.72;1754520;80;21120;-55
2021/04/17 10:06:36;;;;;;;4.78;2.30;;;;;;;11.03;63.25;100726.80;1765874;80;21195;-55
2021/04/17 10:09:15;;;;;;;5.17;2.65;;;;;;;11.08;63.30;100728.61;1756426;80;21543;-55
2021/04/17 10:11:43;;;;;;;7.97;3.27;;;;;;;11.11;63.25;100728.83;1750710;80;21164;-53
2021/04/17 10:14:12;;;;;;;6.25;2.98;;;;;;;11.13;63.24;100737.48;1732853;80;21139;-54
2021/04/17 10:16:47;;;;;;;6.20;3.10;;;;;;;11.08;62.62;100736.51;1744122;80;21196;-55
2021/04/17 10:19:17;;;;;;;6.57;3.90;;;;;;;11.02;62.85;100731.70;1753184;80;21613;-54
2021/04/17 10:21:49;;;;;;;6.72;3.70;;;;;;;10.99;62.93;100741.63;1770153;80;21363;-55
2021/04/17 10:24:28;;;;;;;7.97;3.65;;;;;;;10.91;62.88;100740.88;1734307;80;21195;-55
2021/04/17 10:27:06;;;;;;;6.42;3.75;;;;;;;10.81;63.11;100744.72;1743132;81;21179;-55
2021/04/17 10:29:39;;;;;;;6.17;3.92;;;;;;;10.72;62.94;100746.70;1772301;80;21136;-55
2021/04/17 10:32:16;;;;;;;8.03;4.72;;;;;;;10.59;62.91;100749.40;1765290;80;21113;-54
2021/04/17 10:34:48;;;;;;;6.85;3.92;;;;;;;10.44;63.49;100744.83;1735415;80;21180;-55
2021/04/17 10:37:20;;;;;;;7.37;4.12;;;;;;;10.34;64.13;100747.28;1771649;80;21109;-54
2021/04/17 10:40:05;;;;;;;6.95;3.90;;;;;;;10.33;64.35;100752.17;1761250;80;21614;-55
2021/04/17 10:42:53;;;;;;;8.68;5.17;;;;;;;10.33;64.38;100755.28;1757816;80;21203;-55
2021/04/17 10:45:32;;;;;;;9.33;4.53;;;;;;;10.29;65.04;100755.09;1752823;80;21204;-55
2021/04/17 10:51:03;;;;;;;9.15;4.22;;;;;;;10.17;66.09;100759.00;1762714;79;22761;-54
2021/04/17 10:53:40;;;;;;;7.40;4.30;;;;;;;10.14;66.56;100760.53;1733531;82;21669;-56
2021/04/17 10:56:14;;;;;;;7.78;4.50;;;;;;;10.22;66.80;100762.59;1724064;82;21208;-56
2021/04/17 10:58:42;;;;;;;6.45;3.90;;;;;;;10.28;66.53;100766.59;1722249;82;21021;-56
2021/04/17 11:01:16;;;;;;;6.40;3.72;;;;;;;10.30;66.44;100764.67;1726051;82;21268;-56
2021/04/17 11:03:51;;;;;;;6.58;3.80;;;;;;;10.37;66.32;100764.16;1728970;82;21211;-56
2021/04/17 11:06:27;;;;;;;7.53;4.15;;;;;;;10.55;66.01;100771.64;1696645;82;21224;-56
2021/04/17 11:09:08;;;;;;;8.25;4.97;;;;;;;10.67;65.62;100772.53;1735523;82;23083;-56
2021/04/17 11:11:37;;;;;;;8.60;4.58;;;;;;;10.70;65.60;100769.67;1728993;82;21060;-56
2021/04/17 11:14:06;;;;;;;7.50;5.08;;;;;;;10.70;65.35;100776.25;1729262;82;21168;-56
2021/04/17 11:16:49;;;;;;;8.58;4.60;;;;;;;10.68;65.36;100780.31;1729299;82;21120;-56
2021/04/17 11:19:34;;;;;;;8.43;4.87;;;;;;;10.69;65.43;100777.20;1742848;82;21191;-56
2021/04/17 11:22:15;;;;;;;8.73;5.17;;;;;;;10.74;65.58;100782.95;1727700;82;21228;-56
2021/04/17 11:25:03;;;;;;;7.45;4.72;;;;;;;10.79;65.71;100783.45;1722605;82;21224;-56
2021/04/17 11:27:31;;;;;;;10.78;4.85;;;;;;;10.77;65.42;100787.51;1732506;82;21167;-56
2021/04/17 11:30:01;;;;;;;9.50;5.55;;;;;;;10.74;65.78;100781.64;1724960;82;21176;-56
2021/04/17 11:32:28;;;;;;;7.92;4.58;;;;;;;10.73;65.70;100781.30;1722558;82;21172;-55
2021/04/17 11:34:57;;;;;;;7.10;4.53;;;;;;;10.82;65.82;100783.23;1701455;82;21207;-56
2021/04/17 11:37:29;;;;;;;8.20;5.12;;;;;;;11.00;65.90;100777.55;1740662;82;21212;-56
2021/04/17 11:39:54;;;;;;;8.40;5.28;;;;;;;11.18;65.48;100779.24;1699397;82;21623;-56
2021/04/17 11:42:21;;;;;;;8.30;5.03;;;;;;;11.30;64.46;100780.96;1657493;85;21179;-56
2021/04/17 11:44:48;;;;;;;9.73;5.75;;;;;;;11.36;63.79;100777.01;1695997;84;21223;-56
2021/04/17 11:47:16;;;;;;;8.35;4.47;;;;;;;11.38;64.24;100780.35;1692181;84;23162;-56
2021/04/17 11:49:44;;;;;;;8.80;5.25;;;;;;;11.39;63.14;100778.92;1698483;83;21202;-55
2021/04/17 11:52:11;;;;;;;8.73;5.05;;;;;;;11.31;62.27;100784.80;1700959;83;21166;-54
2021/04/17 11:54:39;;;;;;;9.48;5.22;;;;;;;11.22;62.18;100778.07;1701559;83;21660;-56
2021/04/17 11:57:06;;;;;;;8.90;4.95;;;;;;;11.12;62.21;100783.20;1679592;83;21662;-56
2021/04/17 11:59:34;;;;;;;9.35;5.67;;;;;;;11.03;62.48;100777.30;1673954;83;21212;-56
2021/04/17 12:02:01;;;;;;;8.15;5.25;;;;;;;10.92;62.90;100780.27;1683882;83;21629;-56
2021/04/17 12:04:29;;;;;;;9.78;5.78;;;;;;;10.81;63.04;100778.94;1694373;83;21299;-56